sensor_id;sensor_type;location;lat;lon;timestamp;P1;durP1;ratioP1;P2;durP2;ratioP2
17886;SDS011;9069;52.044;7.472;2023-07-13T00:01:52;4.45;;;1.85;;
17886;SDS011;9069;52.044;7.472;2023-07-13T00:04:21;4.68;;;2.22;;
17886;SDS011;9069;52.044;7.472;2023-07-13T00:06:51;7.22;;;1.90;;
17886;SDS011;9069;52.044;7.472;2023-07-13T00:09:19;4.80;;;1.45;;
17886;SDS011;9069;52.044;7.472;2023-07-13T00:11:50;3.53;;;1.98;;
17886;SDS011;9069;52.044;7.472;2023-07-13T00:14:18;3.50;;;1.83;;
17886;SDS011;9069;52.044;7.472;2023-07-13T00:16:45;6.38;;;1.75;;
17886;SDS011;9069;52.044;7.472;2023-07-13T00:19:13;4.82;;;1.80;;
17886;SDS011;9069;52.044;7.472;2023-07-13T00:21:41;3.78;;;1.67;;
17886;SDS011;9069;52.044;7.472;2023-07-13T00:24:09;6.13;;;1.80;;
17886;SDS011;9069;52.044;7.472;2023-07-13T00:26:39;6.68;;;1.98;;
17886;SDS011;9069;52.044;7.472;2023-07-13T00:29:07;4.97;;;1.85;;
17886;SDS011;9069;52.044;7.472;2023-07-13T00:31:35;5.18;;;1.60;;
17886;SDS011;9069;52.044;7.472;2023-07-13T00:34:03;6.78;;;1.75;;
17886;SDS011;9069;52.044;7.472;2023-07-13T00:36:30;4.03;;;1.88;;
17886;SDS011;9069;52.044;7.472;2023-07-13T00:38:58;8.50;;;1.80;;
17886;SDS011;9069;52.044;7.472;2023-07-13T00:41:24;6.57;;;1.83;;
17886;SDS011;9069;52.044;7.472;2023-07-13T00:43:52;8.40;;;2.03;;
17886;SDS011;9069;52.044;7.472;2023-07-13T00:48:49;3.80;;;2.00;;
17886;SDS011;9069;52.044;7.472;2023-07-13T00:51:17;6.28;;;1.52;;
17886;SDS011;9069;52.044;7.472;2023-07-13T00:53:48;5.85;;;1.73;;
17886;SDS011;9069;52.044;7.472;2023-07-13T00:56:15;6.65;;;1.80;;
17886;SDS011;9069;52.044;7.472;2023-07-13T00:58:43;6.50;;;1.80;;
17886;SDS011;9069;52.044;7.472;2023-07-13T01:01:10;4.78;;;1.50;;
17886;SDS011;9069;52.044;7.472;2023-07-13T01:03:39;7.80;;;1.65;;
17886;SDS011;9069;52.044;7.472;2023-07-13T01:06:07;7.75;;;1.70;;
17886;SDS011;9069;52.044;7.472;2023-07-13T01:08:35;7.55;;;1.58;;
17886;SDS011;9069;52.044;7.472;2023-07-13T01:11:02;2.95;;;1.42;;
17886;SDS011;9069;52.044;7.472;2023-07-13T01:13:29;11.60;;;1.75;;
17886;SDS011;9069;52.044;7.472;2023-07-13T01:15:56;6.80;;;1.52;;
17886;SDS011;9069;52.044;7.472;2023-07-13T01:18:27;6.57;;;1.40;;
17886;SDS011;9069;52.044;7.472;2023-07-13T01:20:59;4.30;;;1.38;;
17886;SDS011;9069;52.044;7.472;2023-07-13T01:23:28;5.45;;;1.42;;
17886;SDS011;9069;52.044;7.472;2023-07-13T01:25:56;5.13;;;1.45;;
17886;SDS011;9069;52.044;7.472;2023-07-13T01:28:24;6.32;;;1.60;;
17886;SDS011;9069;52.044;7.472;2023-07-13T01:30:53;4.78;;;1.50;;
17886;SDS011;9069;52.044;7.472;2023-07-13T01:33:21;9.40;;;1.90;;
17886;SDS011;9069;52.044;7.472;2023-07-13T01:35:49;3.97;;;1.52;;
17886;SDS011;9069;52.044;7.472;2023-07-13T01:38:17;4.30;;;1.55;;
17886;SDS011;9069;52.044;7.472;2023-07-13T01:40:46;10.88;;;1.58;;
17886;SDS011;9069;52.044;7.472;2023-07-13T01:43:13;7.43;;;1.15;;
17886;SDS011;9069;52.044;7.472;2023-07-13T01:45:40;5.63;;;1.40;;
17886;SDS011;9069;52.044;7.472;2023-07-13T01:48:08;7.57;;;1.67;;
17886;SDS011;9069;52.044;7.472;2023-07-13T01:50:36;7.07;;;1.73;;
17886;SDS011;9069;52.044;7.472;2023-07-13T01:53:03;5.30;;;1.33;;
17886;SDS011;9069;52.044;7.472;2023-07-13T01:55:30;5.40;;;1.90;;
17886;SDS011;9069;52.044;7.472;2023-07-13T01:57:57;4.68;;;1.58;;
17886;SDS011;9069;52.044;7.472;2023-07-13T02:00:24;5.13;;;1.23;;
17886;SDS011;9069;52.044;7.472;2023-07-13T02:02:53;8.02;;;1.67;;
17886;SDS011;9069;52.044;7.472;2023-07-13T02:05:20;5.43;;;1.77;;
17886;SDS011;9069;52.044;7.472;2023-07-13T02:07:47;4.60;;;1.50;;
17886;SDS011;9069;52.044;7.472;2023-07-13T02:10:15;3.03;;;1.30;;
17886;SDS011;9069;52.044;7.472;2023-07-13T02:12:42;7.30;;;1.50;;
17886;SDS011;9069;52.044;7.472;2023-07-13T02:15:10;4.38;;;1.40;;
17886;SDS011;9069;52.044;7.472;2023-07-13T02:17:37;2.58;;;1.30;;
17886;SDS011;9069;52.044;7.472;2023-07-13T02:20:04;3.25;;;1.30;;
17886;SDS011;9069;52.044;7.472;2023-07-13T02:22:32;2.72;;;0.98;;
17886;SDS011;9069;52.044;7.472;2023-07-13T02:24:59;4.53;;;1.38;;
17886;SDS011;9069;52.044;7.472;2023-07-13T02:27:26;4.78;;;1.27;;
17886;SDS011;9069;52.044;7.472;2023-07-13T02:29:53;3.53;;;1.50;;
17886;SDS011;9069;52.044;7.472;2023-07-13T02:32:21;4.93;;;1.13;;
17886;SDS011;9069;52.044;7.472;2023-07-13T02:34:50;7.07;;;1.58;;
17886;SDS011;9069;52.044;7.472;2023-07-13T02:37:18;5.38;;;1.63;;
17886;SDS011;9069;52.044;7.472;2023-07-13T02:39:45;2.75;;;1.05;;
17886;SDS011;9069;52.044;7.472;2023-07-13T02:42:12;6.65;;;1.55;;
17886;SDS011;9069;52.044;7.472;2023-07-13T02:44:38;6.35;;;1.35;;
17886;SDS011;9069;52.044;7.472;2023-07-13T02:47:05;4.82;;;1.40;;
17886;SDS011;9069;52.044;7.472;2023-07-13T02:49:33;3.47;;;1.40;;
17886;SDS011;9069;52.044;7.472;2023-07-13T02:52:00;3.03;;;1.25;;
17886;SDS011;9069;52.044;7.472;2023-07-13T02:54:26;5.65;;;1.77;;
17886;SDS011;9069;52.044;7.472;2023-07-13T02:56:53;3.30;;;1.23;;
17886;SDS011;9069;52.044;7.472;2023-07-13T02:59:20;2.65;;;1.10;;
17886;SDS011;9069;52.044;7.472;2023-07-13T03:01:47;3.47;;;1.75;;
17886;SDS011;9069;52.044;7.472;2023-07-13T03:04:14;4.68;;;1.20;;
17886;SDS011;9069;52.044;7.472;2023-07-13T03:06:45;5.40;;;1.65;;
17886;SDS011;9069;52.044;7.472;2023-07-13T03:09:13;3.70;;;1.63;;
17886;SDS011;9069;52.044;7.472;2023-07-13T03:11:44;5.90;;;1.52;;
17886;SDS011;9069;52.044;7.472;2023-07-13T03:14:22;3.55;;;1.17;;
17886;SDS011;9069;52.044;7.472;2023-07-13T03:16:50;3.40;;;1.73;;
17886;SDS011;9069;52.044;7.472;2023-07-13T03:19:20;1.92;;;1.20;;
17886;SDS011;9069;52.044;7.472;2023-07-13T03:21:49;2.67;;;1.20;;
17886;SDS011;9069;52.044;7.472;2023-07-13T03:24:16;3.08;;;1.02;;
17886;SDS011;9069;52.044;7.472;2023-07-13T03:26:43;3.80;;;1.15;;
17886;SDS011;9069;52.044;7.472;2023-07-13T03:29:10;4.18;;;1.25;;
17886;SDS011;9069;52.044;7.472;2023-07-13T03:31:37;6.57;;;1.40;;
17886;SDS011;9069;52.044;7.472;2023-07-13T03:34:04;6.82;;;1.40;;
17886;SDS011;9069;52.044;7.472;2023-07-13T03:36:32;6.57;;;1.95;;
17886;SDS011;9069;52.044;7.472;2023-07-13T03:39:03;3.50;;;1.35;;
17886;SDS011;9069;52.044;7.472;2023-07-13T03:41:39;3.15;;;1.25;;
17886;SDS011;9069;52.044;7.472;2023-07-13T03:44:06;3.65;;;1.38;;
17886;SDS011;9069;52.044;7.472;2023-07-13T03:46:33;3.00;;;1.27;;
17886;SDS011;9069;52.044;7.472;2023-07-13T03:49:01;2.90;;;1.40;;
17886;SDS011;9069;52.044;7.472;2023-07-13T03:51:28;5.05;;;1.73;;
17886;SDS011;9069;52.044;7.472;2023-07-13T03:53:55;7.05;;;1.40;;
17886;SDS011;9069;52.044;7.472;2023-07-13T03:56:22;3.10;;;1.40;;
17886;SDS011;9069;52.044;7.472;2023-07-13T03:58:50;5.47;;;1.55;;
17886;SDS011;9069;52.044;7.472;2023-07-13T04:01:19;2.20;;;1.08;;
17886;SDS011;9069;52.044;7.472;2023-07-13T04:03:48;2.45;;;1.40;;
17886;SDS011;9069;52.044;7.472;2023-07-13T04:06:16;6.95;;;1.90;;
17886;SDS011;9069;52.044;7.472;2023-07-13T04:08:49;8.40;;;1.98;;
17886;SDS011;9069;52.044;7.472;2023-07-13T04:11:19;6.18;;;1.25;;
17886;SDS011;9069;52.044;7.472;2023-07-13T04:13:47;4.43;;;1.10;;
17886;SDS011;9069;52.044;7.472;2023-07-13T04:16:16;8.50;;;1.30;;
17886;SDS011;9069;52.044;7.472;2023-07-13T04:18:44;4.28;;;1.50;;
17886;SDS011;9069;52.044;7.472;2023-07-13T04:21:12;4.97;;;1.40;;
17886;SDS011;9069;52.044;7.472;2023-07-13T04:23:40;5.10;;;1.50;;
17886;SDS011;9069;52.044;7.472;2023-07-13T04:26:07;5.65;;;1.10;;
17886;SDS011;9069;52.044;7.472;2023-07-13T04:28:35;3.30;;;1.33;;
17886;SDS011;9069;52.044;7.472;2023-07-13T04:31:02;5.68;;;1.35;;
17886;SDS011;9069;52.044;7.472;2023-07-13T04:33:29;2.28;;;1.10;;
17886;SDS011;9069;52.044;7.472;2023-07-13T04:35:56;4.03;;;1.10;;
17886;SDS011;9069;52.044;7.472;2023-07-13T04:38:24;2.03;;;1.02;;
17886;SDS011;9069;52.044;7.472;2023-07-13T04:40:55;2.97;;;1.20;;
17886;SDS011;9069;52.044;7.472;2023-07-13T04:43:23;5.47;;;1.27;;
17886;SDS011;9069;52.044;7.472;2023-07-13T04:45:51;3.42;;;1.08;;
17886;SDS011;9069;52.044;7.472;2023-07-13T04:48:18;3.22;;;1.20;;
17886;SDS011;9069;52.044;7.472;2023-07-13T04:50:46;2.97;;;1.25;;
17886;SDS011;9069;52.044;7.472;2023-07-13T04:53:13;4.35;;;1.30;;
17886;SDS011;9069;52.044;7.472;2023-07-13T04:55:40;6.40;;;1.35;;
17886;SDS011;9069;52.044;7.472;2023-07-13T04:58:07;5.15;;;1.13;;
17886;SDS011;9069;52.044;7.472;2023-07-13T05:00:34;4.25;;;1.52;;
17886;SDS011;9069;52.044;7.472;2023-07-13T05:03:01;4.68;;;1.33;;
17886;SDS011;9069;52.044;7.472;2023-07-13T05:05:28;4.32;;;1.30;;
17886;SDS011;9069;52.044;7.472;2023-07-13T05:07:55;5.90;;;1.83;;
17886;SDS011;9069;52.044;7.472;2023-07-13T05:10:22;6.85;;;1.80;;
17886;SDS011;9069;52.044;7.472;2023-07-13T05:12:50;4.40;;;1.73;;
17886;SDS011;9069;52.044;7.472;2023-07-13T05:15:17;6.90;;;1.35;;
17886;SDS011;9069;52.044;7.472;2023-07-13T05:17:49;4.32;;;1.63;;
17886;SDS011;9069;52.044;7.472;2023-07-13T05:20:17;6.05;;;1.88;;
17886;SDS011;9069;52.044;7.472;2023-07-13T05:22:45;5.00;;;1.48;;
17886;SDS011;9069;52.044;7.472;2023-07-13T05:25:15;4.35;;;1.60;;
17886;SDS011;9069;52.044;7.472;2023-07-13T05:27:42;6.28;;;1.30;;
17886;SDS011;9069;52.044;7.472;2023-07-13T05:30:11;3.90;;;1.33;;
17886;SDS011;9069;52.044;7.472;2023-07-13T05:32:38;6.75;;;1.42;;
17886;SDS011;9069;52.044;7.472;2023-07-13T05:35:06;9.07;;;1.73;;
17886;SDS011;9069;52.044;7.472;2023-07-13T05:37:33;5.13;;;1.30;;
17886;SDS011;9069;52.044;7.472;2023-07-13T05:40:00;4.22;;;2.10;;
17886;SDS011;9069;52.044;7.472;2023-07-13T05:42:26;5.43;;;1.73;;
17886;SDS011;9069;52.044;7.472;2023-07-13T05:44:53;7.38;;;1.73;;
17886;SDS011;9069;52.044;7.472;2023-07-13T05:47:20;9.40;;;2.28;;
17886;SDS011;9069;52.044;7.472;2023-07-13T05:49:47;6.22;;;1.77;;
17886;SDS011;9069;52.044;7.472;2023-07-13T05:52:14;4.93;;;1.75;;
17886;SDS011;9069;52.044;7.472;2023-07-13T05:54:41;7.57;;;1.73;;
17886;SDS011;9069;52.044;7.472;2023-07-13T05:57:08;5.82;;;1.80;;
17886;SDS011;9069;52.044;7.472;2023-07-13T05:59:35;8.98;;;1.90;;
17886;SDS011;9069;52.044;7.472;2023-07-13T06:02:02;7.03;;;2.00;;
17886;SDS011;9069;52.044;7.472;2023-07-13T06:04:29;5.55;;;1.98;;
17886;SDS011;9069;52.044;7.472;2023-07-13T06:06:55;5.70;;;2.17;;
17886;SDS011;9069;52.044;7.472;2023-07-13T06:09:23;5.78;;;1.83;;
17886;SDS011;9069;52.044;7.472;2023-07-13T06:11:50;6.57;;;1.70;;
17886;SDS011;9069;52.044;7.472;2023-07-13T06:14:16;8.02;;;1.92;;
17886;SDS011;9069;52.044;7.472;2023-07-13T06:16:43;5.00;;;2.13;;
17886;SDS011;9069;52.044;7.472;2023-07-13T06:19:10;7.72;;;2.08;;
17886;SDS011;9069;52.044;7.472;2023-07-13T06:21:37;8.60;;;1.80;;
17886;SDS011;9069;52.044;7.472;2023-07-13T06:24:04;4.20;;;1.45;;
17886;SDS011;9069;52.044;7.472;2023-07-13T06:26:31;9.27;;;2.03;;
17886;SDS011;9069;52.044;7.472;2023-07-13T06:28:58;8.23;;;2.58;;
17886;SDS011;9069;52.044;7.472;2023-07-13T06:31:25;6.85;;;1.85;;
17886;SDS011;9069;52.044;7.472;2023-07-13T06:33:52;5.90;;;1.58;;
17886;SDS011;9069;52.044;7.472;2023-07-13T06:36:19;5.40;;;1.55;;
17886;SDS011;9069;52.044;7.472;2023-07-13T06:38:45;4.00;;;2.00;;
17886;SDS011;9069;52.044;7.472;2023-07-13T06:41:12;4.70;;;1.63;;
17886;SDS011;9069;52.044;7.472;2023-07-13T06:43:40;5.00;;;1.60;;
17886;SDS011;9069;52.044;7.472;2023-07-13T06:46:07;6.38;;;1.52;;
17886;SDS011;9069;52.044;7.472;2023-07-13T06:48:34;5.07;;;1.70;;
17886;SDS011;9069;52.044;7.472;2023-07-13T06:51:02;6.15;;;1.50;;
17886;SDS011;9069;52.044;7.472;2023-07-13T06:53:29;3.58;;;1.45;;
17886;SDS011;9069;52.044;7.472;2023-07-13T06:55:56;10.63;;;2.25;;
17886;SDS011;9069;52.044;7.472;2023-07-13T06:58:23;5.45;;;2.08;;
17886;SDS011;9069;52.044;7.472;2023-07-13T07:00:50;5.95;;;1.90;;
17886;SDS011;9069;52.044;7.472;2023-07-13T07:03:18;4.88;;;1.88;;
17886;SDS011;9069;52.044;7.472;2023-07-13T07:05:45;6.13;;;2.00;;
17886;SDS011;9069;52.044;7.472;2023-07-13T07:08:12;5.40;;;1.70;;
17886;SDS011;9069;52.044;7.472;2023-07-13T07:10:40;4.15;;;1.80;;
17886;SDS011;9069;52.044;7.472;2023-07-13T07:13:07;4.70;;;2.35;;
17886;SDS011;9069;52.044;7.472;2023-07-13T07:15:34;6.70;;;2.05;;
17886;SDS011;9069;52.044;7.472;2023-07-13T07:18:01;7.05;;;2.08;;
17886;SDS011;9069;52.044;7.472;2023-07-13T07:20:28;6.68;;;2.20;;
17886;SDS011;9069;52.044;7.472;2023-07-13T07:22:56;7.55;;;2.00;;
17886;SDS011;9069;52.044;7.472;2023-07-13T07:25:23;6.63;;;2.05;;
17886;SDS011;9069;52.044;7.472;2023-07-13T07:27:50;4.78;;;1.95;;
17886;SDS011;9069;52.044;7.472;2023-07-13T07:30:20;6.18;;;2.05;;
17886;SDS011;9069;52.044;7.472;2023-07-13T07:32:50;6.10;;;2.08;;
17886;SDS011;9069;52.044;7.472;2023-07-13T07:35:19;3.55;;;2.00;;
17886;SDS011;9069;52.044;7.472;2023-07-13T07:37:46;4.72;;;2.50;;
17886;SDS011;9069;52.044;7.472;2023-07-13T07:40:16;4.78;;;1.95;;
17886;SDS011;9069;52.044;7.472;2023-07-13T07:42:47;7.30;;;2.10;;
17886;SDS011;9069;52.044;7.472;2023-07-13T07:45:14;7.78;;;2.30;;
17886;SDS011;9069;52.044;7.472;2023-07-13T07:47:41;5.10;;;2.08;;
17886;SDS011;9069;52.044;7.472;2023-07-13T07:50:08;4.20;;;2.13;;
17886;SDS011;9069;52.044;7.472;2023-07-13T07:52:35;8.05;;;2.25;;
17886;SDS011;9069;52.044;7.472;2023-07-13T07:55:06;5.72;;;2.00;;
17886;SDS011;9069;52.044;7.472;2023-07-13T07:57:37;6.53;;;2.28;;
17886;SDS011;9069;52.044;7.472;2023-07-13T08:00:07;4.90;;;2.10;;
17886;SDS011;9069;52.044;7.472;2023-07-13T08:02:40;5.43;;;2.50;;
17886;SDS011;9069;52.044;7.472;2023-07-13T08:05:27;7.22;;;2.40;;
17886;SDS011;9069;52.044;7.472;2023-07-13T08:07:57;5.55;;;2.47;;
17886;SDS011;9069;52.044;7.472;2023-07-13T08:10:24;4.60;;;2.20;;
17886;SDS011;9069;52.044;7.472;2023-07-13T08:12:50;7.47;;;2.83;;
17886;SDS011;9069;52.044;7.472;2023-07-13T08:15:20;10.50;;;2.70;;
17886;SDS011;9069;52.044;7.472;2023-07-13T08:17:48;7.13;;;2.40;;
17886;SDS011;9069;52.044;7.472;2023-07-13T08:20:16;7.55;;;2.92;;
17886;SDS011;9069;52.044;7.472;2023-07-13T08:22:43;8.18;;;2.30;;
17886;SDS011;9069;52.044;7.472;2023-07-13T08:25:09;5.05;;;2.28;;
17886;SDS011;9069;52.044;7.472;2023-07-13T08:27:36;6.30;;;2.80;;
17886;SDS011;9069;52.044;7.472;2023-07-13T08:30:03;6.88;;;2.90;;
17886;SDS011;9069;52.044;7.472;2023-07-13T08:32:31;13.93;;;3.45;;
17886;SDS011;9069;52.044;7.472;2023-07-13T08:34:58;6.63;;;2.97;;
17886;SDS011;9069;52.044;7.472;2023-07-13T08:37:25;7.40;;;3.53;;
17886;SDS011;9069;52.044;7.472;2023-07-13T08:39:52;5.75;;;2.60;;
17886;SDS011;9069;52.044;7.472;2023-07-13T08:45:07;4.95;;;2.13;;
17886;SDS011;9069;52.044;7.472;2023-07-13T08:47:52;9.35;;;3.25;;
17886;SDS011;9069;52.044;7.472;2023-07-13T08:50:24;5.53;;;2.55;;
17886;SDS011;9069;52.044;7.472;2023-07-13T08:53:23;6.78;;;2.70;;
17886;SDS011;9069;52.044;7.472;2023-07-13T08:56:09;7.40;;;3.00;;
17886;SDS011;9069;52.044;7.472;2023-07-13T08:58:42;7.85;;;2.97;;
17886;SDS011;9069;52.044;7.472;2023-07-13T09:03:42;6.85;;;3.08;;
17886;SDS011;9069;52.044;7.472;2023-07-13T09:06:21;7.78;;;2.70;;
17886;SDS011;9069;52.044;7.472;2023-07-13T09:08:58;6.00;;;2.30;;
17886;SDS011;9069;52.044;7.472;2023-07-13T09:11:40;7.38;;;2.90;;
17886;SDS011;9069;52.044;7.472;2023-07-13T09:17:08;4.45;;;2.35;;
17886;SDS011;9069;52.044;7.472;2023-07-13T09:19:39;6.93;;;2.42;;
17886;SDS011;9069;52.044;7.472;2023-07-13T09:22:09;5.18;;;2.17;;
17886;SDS011;9069;52.044;7.472;2023-07-13T09:25:02;5.80;;;2.25;;
17886;SDS011;9069;52.044;7.472;2023-07-13T09:27:50;4.88;;;2.08;;
17886;SDS011;9069;52.044;7.472;2023-07-13T09:31:03;7.75;;;2.47;;
17886;SDS011;9069;52.044;7.472;2023-07-13T09:33:14;5.40;;;2.47;;
17886;SDS011;9069;52.044;7.472;2023-07-13T09:35:41;7.22;;;2.20;;
17886;SDS011;9069;52.044;7.472;2023-07-13T09:38:11;7.90;;;2.38;;
17886;SDS011;9069;52.044;7.472;2023-07-13T09:43:35;5.10;;;2.10;;
17886;SDS011;9069;52.044;7.472;2023-07-13T09:46:02;6.88;;;2.60;;
17886;SDS011;9069;52.044;7.472;2023-07-13T09:48:34;7.72;;;2.83;;
17886;SDS011;9069;52.044;7.472;2023-07-13T09:51:15;5.35;;;2.55;;
17886;SDS011;9069;52.044;7.472;2023-07-13T09:53:42;6.28;;;2.47;;
17886;SDS011;9069;52.044;7.472;2023-07-13T09:56:19;5.85;;;2.38;;
17886;SDS011;9069;52.044;7.472;2023-07-13T09:58:48;7.32;;;2.28;;
17886;SDS011;9069;52.044;7.472;2023-07-13T10:01:15;4.80;;;2.20;;
17886;SDS011;9069;52.044;7.472;2023-07-13T10:03:56;7.32;;;2.38;;
17886;SDS011;9069;52.044;7.472;2023-07-13T10:06:24;5.18;;;2.58;;
17886;SDS011;9069;52.044;7.472;2023-07-13T10:08:52;7.85;;;2.90;;
17886;SDS011;9069;52.044;7.472;2023-07-13T10:11:23;6.10;;;2.60;;
17886;SDS011;9069;52.044;7.472;2023-07-13T10:14:17;7.18;;;2.10;;
17886;SDS011;9069;52.044;7.472;2023-07-13T10:16:44;6.00;;;2.33;;
17886;SDS011;9069;52.044;7.472;2023-07-13T10:19:14;4.05;;;2.10;;
17886;SDS011;9069;52.044;7.472;2023-07-13T10:21:50;4.07;;;2.25;;
17886;SDS011;9069;52.044;7.472;2023-07-13T10:24:31;4.00;;;2.10;;
17886;SDS011;9069;52.044;7.472;2023-07-13T10:29:34;6.15;;;2.47;;
17886;SDS011;9069;52.044;7.472;2023-07-13T10:32:09;2.42;;;1.83;;
17886;SDS011;9069;52.044;7.472;2023-07-13T10:34:38;5.15;;;1.92;;
17886;SDS011;9069;52.044;7.472;2023-07-13T10:37:08;5.03;;;2.00;;
17886;SDS011;9069;52.044;7.472;2023-07-13T10:39:45;5.22;;;2.42;;
17886;SDS011;9069;52.044;7.472;2023-07-13T10:42:14;5.47;;;2.13;;
17886;SDS011;9069;52.044;7.472;2023-07-13T10:44:53;4.57;;;2.58;;
17886;SDS011;9069;52.044;7.472;2023-07-13T10:47:20;5.32;;;2.30;;
17886;SDS011;9069;52.044;7.472;2023-07-13T10:49:47;3.72;;;2.08;;
17886;SDS011;9069;52.044;7.472;2023-07-13T10:52:37;4.22;;;2.00;;
17886;SDS011;9069;52.044;7.472;2023-07-13T10:55:30;3.78;;;2.10;;
17886;SDS011;9069;52.044;7.472;2023-07-13T10:58:23;2.83;;;1.52;;
17886;SDS011;9069;52.044;7.472;2023-07-13T11:01:14;3.65;;;2.00;;
17886;SDS011;9069;52.044;7.472;2023-07-13T11:12:06;4.50;;;1.58;;
17886;SDS011;9069;52.044;7.472;2023-07-13T11:15:02;2.97;;;1.80;;
17886;SDS011;9069;52.044;7.472;2023-07-13T11:28:15;4.20;;;1.73;;
17886;SDS011;9069;52.044;7.472;2023-07-13T11:30:48;4.47;;;1.95;;
17886;SDS011;9069;52.044;7.472;2023-07-13T11:38:29;4.80;;;1.60;;
17886;SDS011;9069;52.044;7.472;2023-07-13T11:41:26;2.53;;;1.25;;
17886;SDS011;9069;52.044;7.472;2023-07-13T11:43:55;4.15;;;1.52;;
17886;SDS011;9069;52.044;7.472;2023-07-13T11:46:33;3.55;;;1.80;;
17886;SDS011;9069;52.044;7.472;2023-07-13T11:49:00;5.47;;;2.08;;
17886;SDS011;9069;52.044;7.472;2023-07-13T11:51:35;2.95;;;1.40;;
17886;SDS011;9069;52.044;7.472;2023-07-13T11:54:04;4.80;;;1.70;;
17886;SDS011;9069;52.044;7.472;2023-07-13T11:56:40;4.10;;;1.70;;
17886;SDS011;9069;52.044;7.472;2023-07-13T11:59:08;3.80;;;2.20;;
17886;SDS011;9069;52.044;7.472;2023-07-13T12:01:44;4.93;;;1.88;;
17886;SDS011;9069;52.044;7.472;2023-07-13T12:04:19;3.83;;;1.52;;
17886;SDS011;9069;52.044;7.472;2023-07-13T12:07:05;3.97;;;1.58;;
17886;SDS011;9069;52.044;7.472;2023-07-13T12:09:42;3.75;;;1.98;;
17886;SDS011;9069;52.044;7.472;2023-07-13T12:12:13;2.70;;;2.10;;
17886;SDS011;9069;52.044;7.472;2023-07-13T12:14:43;4.88;;;2.10;;
17886;SDS011;9069;52.044;7.472;2023-07-13T12:17:17;2.72;;;1.73;;
17886;SDS011;9069;52.044;7.472;2023-07-13T12:19:47;4.85;;;2.10;;
17886;SDS011;9069;52.044;7.472;2023-07-13T12:22:14;6.03;;;1.90;;
17886;SDS011;9069;52.044;7.472;2023-07-13T12:24:44;5.78;;;2.28;;
17886;SDS011;9069;52.044;7.472;2023-07-13T12:27:20;4.18;;;1.60;;
17886;SDS011;9069;52.044;7.472;2023-07-13T12:30:00;7.47;;;2.65;;
17886;SDS011;9069;52.044;7.472;2023-07-13T12:32:29;4.38;;;2.50;;
17886;SDS011;9069;52.044;7.472;2023-07-13T12:35:03;6.80;;;2.83;;
17886;SDS011;9069;52.044;7.472;2023-07-13T12:37:43;4.93;;;2.47;;
17886;SDS011;9069;52.044;7.472;2023-07-13T12:40:20;6.15;;;2.65;;
17886;SDS011;9069;52.044;7.472;2023-07-13T12:42:52;4.60;;;2.08;;
17886;SDS011;9069;52.044;7.472;2023-07-13T12:45:22;4.47;;;2.22;;
17886;SDS011;9069;52.044;7.472;2023-07-13T12:47:55;2.60;;;2.40;;
17886;SDS011;9069;52.044;7.472;2023-07-13T12:50:37;4.05;;;2.50;;
17886;SDS011;9069;52.044;7.472;2023-07-13T12:53:14;5.53;;;2.38;;
17886;SDS011;9069;52.044;7.472;2023-07-13T12:55:45;5.03;;;2.47;;
17886;SDS011;9069;52.044;7.472;2023-07-13T12:58:20;8.80;;;2.85;;
17886;SDS011;9069;52.044;7.472;2023-07-13T13:00:56;7.03;;;2.67;;
17886;SDS011;9069;52.044;7.472;2023-07-13T13:06:28;6.60;;;2.50;;
17886;SDS011;9069;52.044;7.472;2023-07-13T13:08:57;5.22;;;2.22;;
17886;SDS011;9069;52.044;7.472;2023-07-13T13:11:25;5.00;;;2.40;;
17886;SDS011;9069;52.044;7.472;2023-07-13T13:13:53;2.33;;;1.60;;
17886;SDS011;9069;52.044;7.472;2023-07-13T13:16:29;3.88;;;1.80;;
17886;SDS011;9069;52.044;7.472;2023-07-13T13:21:48;5.25;;;1.85;;
17886;SDS011;9069;52.044;7.472;2023-07-13T13:24:20;6.32;;;1.88;;
17886;SDS011;9069;52.044;7.472;2023-07-13T13:26:49;2.28;;;1.80;;
17886;SDS011;9069;52.044;7.472;2023-07-13T13:29:22;2.75;;;1.88;;
17886;SDS011;9069;52.044;7.472;2023-07-13T13:31:53;2.60;;;1.60;;
17886;SDS011;9069;52.044;7.472;2023-07-13T13:34:22;2.80;;;1.70;;
17886;SDS011;9069;52.044;7.472;2023-07-13T13:36:50;7.07;;;2.28;;
17886;SDS011;9069;52.044;7.472;2023-07-13T13:39:22;4.85;;;2.15;;
17886;SDS011;9069;52.044;7.472;2023-07-13T13:41:52;3.17;;;1.60;;
17886;SDS011;9069;52.044;7.472;2023-07-13T13:44:20;4.10;;;1.85;;
17886;SDS011;9069;52.044;7.472;2023-07-13T13:46:48;2.42;;;1.98;;
17886;SDS011;9069;52.044;7.472;2023-07-13T13:49:26;3.45;;;1.85;;
17886;SDS011;9069;52.044;7.472;2023-07-13T13:51:56;3.03;;;1.67;;
17886;SDS011;9069;52.044;7.472;2023-07-13T13:54:23;2.60;;;1.92;;
17886;SDS011;9069;52.044;7.472;2023-07-13T13:56:52;3.65;;;2.03;;
17886;SDS011;9069;52.044;7.472;2023-07-13T13:59:19;3.70;;;1.85;;
17886;SDS011;9069;52.044;7.472;2023-07-13T14:01:46;2.90;;;1.73;;
17886;SDS011;9069;52.044;7.472;2023-07-13T14:04:16;2.50;;;1.67;;
17886;SDS011;9069;52.044;7.472;2023-07-13T14:06:45;2.92;;;1.58;;
17886;SDS011;9069;52.044;7.472;2023-07-13T14:09:14;1.90;;;1.55;;
17886;SDS011;9069;52.044;7.472;2023-07-13T14:11:44;2.72;;;1.65;;
17886;SDS011;9069;52.044;7.472;2023-07-13T14:14:18;3.85;;;1.70;;
17886;SDS011;9069;52.044;7.472;2023-07-13T14:16:50;2.53;;;1.77;;
17886;SDS011;9069;52.044;7.472;2023-07-13T14:19:22;4.07;;;1.98;;
17886;SDS011;9069;52.044;7.472;2023-07-13T14:21:49;2.90;;;1.75;;
17886;SDS011;9069;52.044;7.472;2023-07-13T14:24:19;2.53;;;1.65;;
17886;SDS011;9069;52.044;7.472;2023-07-13T14:26:46;3.03;;;1.83;;
17886;SDS011;9069;52.044;7.472;2023-07-13T14:29:14;2.30;;;1.90;;
17886;SDS011;9069;52.044;7.472;2023-07-13T14:31:47;4.80;;;2.13;;
17886;SDS011;9069;52.044;7.472;2023-07-13T14:34:14;3.03;;;1.80;;
17886;SDS011;9069;52.044;7.472;2023-07-13T14:36:44;4.93;;;2.22;;
17886;SDS011;9069;52.044;7.472;2023-07-13T14:39:18;3.33;;;1.80;;
17886;SDS011;9069;52.044;7.472;2023-07-13T14:41:49;5.38;;;2.03;;
17886;SDS011;9069;52.044;7.472;2023-07-13T14:44:24;2.22;;;1.60;;
17886;SDS011;9069;52.044;7.472;2023-07-13T14:46:55;3.78;;;1.90;;
17886;SDS011;9069;52.044;7.472;2023-07-13T14:49:40;2.95;;;1.92;;
17886;SDS011;9069;52.044;7.472;2023-07-13T14:52:13;4.35;;;2.55;;
17886;SDS011;9069;52.044;7.472;2023-07-13T14:54:44;3.17;;;1.88;;
17886;SDS011;9069;52.044;7.472;2023-07-13T14:57:13;4.95;;;2.40;;
17886;SDS011;9069;52.044;7.472;2023-07-13T14:59:42;4.70;;;2.25;;
17886;SDS011;9069;52.044;7.472;2023-07-13T15:02:16;5.43;;;2.05;;
17886;SDS011;9069;52.044;7.472;2023-07-13T15:04:44;2.05;;;1.80;;
17886;SDS011;9069;52.044;7.472;2023-07-13T15:07:11;3.13;;;2.15;;
17886;SDS011;9069;52.044;7.472;2023-07-13T15:09:41;3.65;;;1.98;;
17886;SDS011;9069;52.044;7.472;2023-07-13T15:12:08;4.78;;;1.88;;
17886;SDS011;9069;52.044;7.472;2023-07-13T15:14:35;3.55;;;1.70;;
17886;SDS011;9069;52.044;7.472;2023-07-13T15:17:03;4.28;;;1.90;;
17886;SDS011;9069;52.044;7.472;2023-07-13T15:19:30;2.90;;;2.03;;
17886;SDS011;9069;52.044;7.472;2023-07-13T15:21:57;2.10;;;1.50;;
17886;SDS011;9069;52.044;7.472;2023-07-13T15:24:24;4.38;;;1.80;;
17886;SDS011;9069;52.044;7.472;2023-07-13T15:26:51;4.95;;;1.88;;
17886;SDS011;9069;52.044;7.472;2023-07-13T15:29:18;7.38;;;2.08;;
17886;SDS011;9069;52.044;7.472;2023-07-13T15:31:45;2.35;;;1.50;;
17886;SDS011;9069;52.044;7.472;2023-07-13T15:34:13;1.38;;;1.10;;
17886;SDS011;9069;52.044;7.472;2023-07-13T15:36:42;3.17;;;1.77;;
17886;SDS011;9069;52.044;7.472;2023-07-13T15:39:16;1.90;;;1.60;;
17886;SDS011;9069;52.044;7.472;2023-07-13T15:41:43;1.67;;;1.13;;
17886;SDS011;9069;52.044;7.472;2023-07-13T15:44:27;3.83;;;1.27;;
17886;SDS011;9069;52.044;7.472;2023-07-13T15:46:55;1.48;;;1.00;;
17886;SDS011;9069;52.044;7.472;2023-07-13T15:49:22;2.08;;;1.40;;
17886;SDS011;9069;52.044;7.472;2023-07-13T15:51:49;1.35;;;1.02;;
17886;SDS011;9069;52.044;7.472;2023-07-13T15:54:17;3.58;;;1.38;;
17886;SDS011;9069;52.044;7.472;2023-07-13T15:56:46;2.97;;;1.40;;
17886;SDS011;9069;52.044;7.472;2023-07-13T15:59:19;1.40;;;0.93;;
17886;SDS011;9069;52.044;7.472;2023-07-13T16:01:46;2.08;;;1.10;;
17886;SDS011;9069;52.044;7.472;2023-07-13T16:04:15;2.92;;;1.35;;